sensor_id;sensor_type;location;lat;lon;timestamp;P1;durP1;ratioP1;P2;durP2;ratioP2
5953;SDS011;3002;42.642;24.812;2023-06-14T00:01:46;5.90;;;2.90;;
5953;SDS011;3002;42.642;24.812;2023-06-14T00:04:12;4.80;;;2.40;;
5953;SDS011;3002;42.642;24.812;2023-06-14T00:06:38;5.93;;;2.80;;
5953;SDS011;3002;42.642;24.812;2023-06-14T00:09:04;6.97;;;2.90;;
5953;SDS011;3002;42.642;24.812;2023-06-14T00:11:30;6.60;;;2.87;;
5953;SDS011;3002;42.642;24.812;2023-06-14T00:13:56;5.00;;;2.60;;
5953;SDS011;3002;42.642;24.812;2023-06-14T00:16:22;7.67;;;2.90;;
5953;SDS011;3002;42.642;24.812;2023-06-14T00:18:48;5.83;;;2.70;;
5953;SDS011;3002;42.642;24.812;2023-06-14T00:21:14;7.10;;;2.70;;
5953;SDS011;3002;42.642;24.812;2023-06-14T00:23:39;5.53;;;2.43;;
5953;SDS011;3002;42.642;24.812;2023-06-14T00:26:05;9.90;;;2.97;;
5953;SDS011;3002;42.642;24.812;2023-06-14T00:28:30;6.90;;;3.23;;
5953;SDS011;3002;42.642;24.812;2023-06-14T00:30:56;6.23;;;3.00;;
5953;SDS011;3002;42.642;24.812;2023-06-14T00:33:21;6.57;;;2.77;;
5953;SDS011;3002;42.642;24.812;2023-06-14T00:35:47;33.87;;;3.50;;
5953;SDS011;3002;42.642;24.812;2023-06-14T00:38:12;5.40;;;2.73;;
5953;SDS011;3002;42.642;24.812;2023-06-14T00:40:38;4.70;;;2.17;;
5953;SDS011;3002;42.642;24.812;2023-06-14T00:43:03;5.20;;;2.70;;
5953;SDS011;3002;42.642;24.812;2023-06-14T00:45:29;5.60;;;2.73;;
5953;SDS011;3002;42.642;24.812;2023-06-14T00:47:56;5.13;;;2.43;;
5953;SDS011;3002;42.642;24.812;2023-06-14T00:50:22;6.47;;;2.53;;
5953;SDS011;3002;42.642;24.812;2023-06-14T00:52:49;5.90;;;2.70;;
5953;SDS011;3002;42.642;24.812;2023-06-14T00:55:15;7.00;;;3.00;;
5953;SDS011;3002;42.642;24.812;2023-06-14T00:57:41;8.03;;;2.70;;
5953;SDS011;3002;42.642;24.812;2023-06-14T01:00:07;7.27;;;2.97;;
5953;SDS011;3002;42.642;24.812;2023-06-14T01:02:37;6.13;;;2.63;;
5953;SDS011;3002;42.642;24.812;2023-06-14T01:05:04;4.67;;;2.27;;
5953;SDS011;3002;42.642;24.812;2023-06-14T01:11:08;5.27;;;2.10;;
5953;SDS011;3002;42.642;24.812;2023-06-14T01:13:40;5.30;;;2.10;;
5953;SDS011;3002;42.642;24.812;2023-06-14T01:16:10;9.40;;;2.60;;
5953;SDS011;3002;42.642;24.812;2023-06-14T01:18:37;6.67;;;3.17;;
5953;SDS011;3002;42.642;24.812;2023-06-14T01:21:02;10.87;;;2.63;;
5953;SDS011;3002;42.642;24.812;2023-06-14T01:23:31;8.37;;;2.97;;
5953;SDS011;3002;42.642;24.812;2023-06-14T01:26:00;11.50;;;3.77;;
5953;SDS011;3002;42.642;24.812;2023-06-14T01:28:28;5.90;;;2.80;;
5953;SDS011;3002;42.642;24.812;2023-06-14T01:30:57;5.70;;;2.80;;
5953;SDS011;3002;42.642;24.812;2023-06-14T01:33:26;6.70;;;3.07;;
5953;SDS011;3002;42.642;24.812;2023-06-14T01:35:53;6.40;;;2.83;;
5953;SDS011;3002;42.642;24.812;2023-06-14T01:38:24;5.87;;;3.00;;
5953;SDS011;3002;42.642;24.812;2023-06-14T01:40:51;6.13;;;2.70;;
5953;SDS011;3002;42.642;24.812;2023-06-14T01:43:19;6.50;;;3.37;;
5953;SDS011;3002;42.642;24.812;2023-06-14T01:45:45;6.83;;;2.90;;
5953;SDS011;3002;42.642;24.812;2023-06-14T01:48:13;6.73;;;3.43;;
5953;SDS011;3002;42.642;24.812;2023-06-14T01:50:39;6.03;;;2.47;;
5953;SDS011;3002;42.642;24.812;2023-06-14T01:53:07;6.87;;;2.93;;
5953;SDS011;3002;42.642;24.812;2023-06-14T01:55:33;7.50;;;3.87;;
5953;SDS011;3002;42.642;24.812;2023-06-14T01:58:02;6.30;;;3.40;;
5953;SDS011;3002;42.642;24.812;2023-06-14T02:00:30;6.00;;;2.93;;
5953;SDS011;3002;42.642;24.812;2023-06-14T02:02:56;5.30;;;3.00;;
5953;SDS011;3002;42.642;24.812;2023-06-14T02:05:22;5.40;;;2.57;;
5953;SDS011;3002;42.642;24.812;2023-06-14T02:07:47;5.37;;;2.97;;
5953;SDS011;3002;42.642;24.812;2023-06-14T02:10:13;6.27;;;3.27;;
5953;SDS011;3002;42.642;24.812;2023-06-14T02:12:42;5.20;;;2.27;;
5953;SDS011;3002;42.642;24.812;2023-06-14T02:15:09;5.47;;;2.60;;
5953;SDS011;3002;42.642;24.812;2023-06-14T02:17:44;6.23;;;3.00;;
5953;SDS011;3002;42.642;24.812;2023-06-14T02:20:12;7.50;;;3.50;;
5953;SDS011;3002;42.642;24.812;2023-06-14T02:22:37;7.33;;;2.80;;
5953;SDS011;3002;42.642;24.812;2023-06-14T02:25:03;7.00;;;3.00;;
5953;SDS011;3002;42.642;24.812;2023-06-14T02:27:29;10.10;;;3.57;;
5953;SDS011;3002;42.642;24.812;2023-06-14T02:29:54;6.60;;;3.20;;
5953;SDS011;3002;42.642;24.812;2023-06-14T02:32:20;5.23;;;2.60;;
5953;SDS011;3002;42.642;24.812;2023-06-14T02:34:45;6.27;;;3.13;;
5953;SDS011;3002;42.642;24.812;2023-06-14T02:37:14;7.13;;;2.97;;
5953;SDS011;3002;42.642;24.812;2023-06-14T02:39:40;5.53;;;2.90;;
5953;SDS011;3002;42.642;24.812;2023-06-14T02:42:06;7.50;;;3.27;;
5953;SDS011;3002;42.642;24.812;2023-06-14T02:44:31;11.43;;;2.90;;
5953;SDS011;3002;42.642;24.812;2023-06-14T02:46:57;5.30;;;2.57;;
5953;SDS011;3002;42.642;24.812;2023-06-14T02:49:23;5.63;;;3.13;;
5953;SDS011;3002;42.642;24.812;2023-06-14T02:51:50;16.13;;;3.47;;
5953;SDS011;3002;42.642;24.812;2023-06-14T02:54:15;6.23;;;2.50;;
5953;SDS011;3002;42.642;24.812;2023-06-14T02:56:41;6.80;;;3.10;;
5953;SDS011;3002;42.642;24.812;2023-06-14T02:59:06;6.17;;;3.30;;
5953;SDS011;3002;42.642;24.812;2023-06-14T03:01:34;6.17;;;3.20;;
5953;SDS011;3002;42.642;24.812;2023-06-14T03:04:00;4.73;;;2.27;;
5953;SDS011;3002;42.642;24.812;2023-06-14T03:06:29;5.60;;;2.53;;
5953;SDS011;3002;42.642;24.812;2023-06-14T03:09:02;7.83;;;3.37;;
5953;SDS011;3002;42.642;24.812;2023-06-14T03:11:34;16.50;;;4.13;;
5953;SDS011;3002;42.642;24.812;2023-06-14T03:14:00;6.70;;;3.00;;
5953;SDS011;3002;42.642;24.812;2023-06-14T03:16:28;16.20;;;4.33;;
5953;SDS011;3002;42.642;24.812;2023-06-14T03:18:55;10.47;;;4.23;;
5953;SDS011;3002;42.642;24.812;2023-06-14T03:21:20;7.40;;;3.53;;
5953;SDS011;3002;42.642;24.812;2023-06-14T03:23:47;7.70;;;3.13;;
5953;SDS011;3002;42.642;24.812;2023-06-14T03:26:13;9.67;;;3.10;;
5953;SDS011;3002;42.642;24.812;2023-06-14T03:28:40;8.43;;;3.43;;
5953;SDS011;3002;42.642;24.812;2023-06-14T03:31:06;14.07;;;3.33;;
5953;SDS011;3002;42.642;24.812;2023-06-14T03:33:33;6.90;;;3.00;;
5953;SDS011;3002;42.642;24.812;2023-06-14T03:35:59;5.67;;;2.27;;
5953;SDS011;3002;42.642;24.812;2023-06-14T03:38:25;7.40;;;2.87;;
5953;SDS011;3002;42.642;24.812;2023-06-14T03:40:50;7.93;;;3.00;;
5953;SDS011;3002;42.642;24.812;2023-06-14T03:43:16;11.70;;;4.17;;
5953;SDS011;3002;42.642;24.812;2023-06-14T03:45:41;6.57;;;2.80;;
5953;SDS011;3002;42.642;24.812;2023-06-14T03:48:07;7.43;;;3.00;;
5953;SDS011;3002;42.642;24.812;2023-06-14T03:50:33;6.73;;;3.30;;
5953;SDS011;3002;42.642;24.812;2023-06-14T03:52:59;15.80;;;3.00;;
5953;SDS011;3002;42.642;24.812;2023-06-14T03:55:26;6.73;;;3.10;;
5953;SDS011;3002;42.642;24.812;2023-06-14T03:57:52;11.37;;;3.37;;
5953;SDS011;3002;42.642;24.812;2023-06-14T04:00:18;8.03;;;3.63;;
5953;SDS011;3002;42.642;24.812;2023-06-14T04:02:44;14.20;;;3.67;;
5953;SDS011;3002;42.642;24.812;2023-06-14T04:05:09;7.00;;;3.03;;
5953;SDS011;3002;42.642;24.812;2023-06-14T04:07:35;5.77;;;2.53;;
5953;SDS011;3002;42.642;24.812;2023-06-14T04:10:10;13.53;;;4.30;;
5953;SDS011;3002;42.642;24.812;2023-06-14T04:12:37;5.80;;;2.87;;
5953;SDS011;3002;42.642;24.812;2023-06-14T04:15:02;6.50;;;2.83;;
5953;SDS011;3002;42.642;24.812;2023-06-14T04:17:30;5.57;;;3.10;;
5953;SDS011;3002;42.642;24.812;2023-06-14T04:19:58;6.00;;;2.70;;
5953;SDS011;3002;42.642;24.812;2023-06-14T04:22:24;7.70;;;3.53;;
5953;SDS011;3002;42.642;24.812;2023-06-14T04:24:53;6.27;;;3.10;;
5953;SDS011;3002;42.642;24.812;2023-06-14T04:27:21;6.10;;;3.17;;
5953;SDS011;3002;42.642;24.812;2023-06-14T04:29:50;9.63;;;4.27;;
5953;SDS011;3002;42.642;24.812;2023-06-14T04:32:21;7.87;;;3.87;;
5953;SDS011;3002;42.642;24.812;2023-06-14T04:34:54;8.80;;;3.50;;
5953;SDS011;3002;42.642;24.812;2023-06-14T04:37:21;6.40;;;3.13;;
5953;SDS011;3002;42.642;24.812;2023-06-14T04:39:47;7.17;;;3.07;;
5953;SDS011;3002;42.642;24.812;2023-06-14T04:42:13;5.30;;;2.87;;
5953;SDS011;3002;42.642;24.812;2023-06-14T04:44:42;9.57;;;3.40;;
5953;SDS011;3002;42.642;24.812;2023-06-14T04:47:09;8.30;;;3.60;;
5953;SDS011;3002;42.642;24.812;2023-06-14T04:49:35;8.43;;;4.40;;
5953;SDS011;3002;42.642;24.812;2023-06-14T04:52:00;15.90;;;4.10;;
5953;SDS011;3002;42.642;24.812;2023-06-14T04:54:27;7.83;;;4.10;;
5953;SDS011;3002;42.642;24.812;2023-06-14T04:56:56;11.77;;;4.40;;
5953;SDS011;3002;42.642;24.812;2023-06-14T04:59:22;12.97;;;4.70;;
5953;SDS011;3002;42.642;24.812;2023-06-14T05:01:48;6.60;;;3.70;;
5953;SDS011;3002;42.642;24.812;2023-06-14T05:04:14;12.00;;;5.00;;
5953;SDS011;3002;42.642;24.812;2023-06-14T05:06:43;6.80;;;3.70;;
5953;SDS011;3002;42.642;24.812;2023-06-14T05:09:12;7.83;;;3.90;;
5953;SDS011;3002;42.642;24.812;2023-06-14T05:11:39;9.57;;;4.60;;
5953;SDS011;3002;42.642;24.812;2023-06-14T05:14:04;7.13;;;3.10;;
5953;SDS011;3002;42.642;24.812;2023-06-14T05:16:31;8.53;;;4.40;;
5953;SDS011;3002;42.642;24.812;2023-06-14T05:18:57;7.70;;;3.60;;
5953;SDS011;3002;42.642;24.812;2023-06-14T05:21:23;7.40;;;3.93;;
5953;SDS011;3002;42.642;24.812;2023-06-14T05:23:49;9.07;;;3.37;;
5953;SDS011;3002;42.642;24.812;2023-06-14T05:26:16;9.20;;;3.27;;
5953;SDS011;3002;42.642;24.812;2023-06-14T05:28:41;7.03;;;3.13;;
5953;SDS011;3002;42.642;24.812;2023-06-14T05:31:07;7.43;;;3.07;;
5953;SDS011;3002;42.642;24.812;2023-06-14T05:33:32;6.67;;;3.40;;
5953;SDS011;3002;42.642;24.812;2023-06-14T05:35:57;7.60;;;3.30;;
5953;SDS011;3002;42.642;24.812;2023-06-14T05:38:23;6.90;;;3.50;;
5953;SDS011;3002;42.642;24.812;2023-06-14T05:40:48;6.93;;;3.60;;
5953;SDS011;3002;42.642;24.812;2023-06-14T05:43:14;7.87;;;3.80;;
5953;SDS011;3002;42.642;24.812;2023-06-14T05:45:39;8.47;;;3.63;;
5953;SDS011;3002;42.642;24.812;2023-06-14T05:48:05;6.47;;;3.50;;
5953;SDS011;3002;42.642;24.812;2023-06-14T05:50:30;7.20;;;3.27;;
5953;SDS011;3002;42.642;24.812;2023-06-14T05:52:56;8.50;;;3.10;;
5953;SDS011;3002;42.642;24.812;2023-06-14T05:55:22;10.57;;;4.47;;
5953;SDS011;3002;42.642;24.812;2023-06-14T05:57:47;7.20;;;4.10;;
5953;SDS011;3002;42.642;24.812;2023-06-14T06:00:13;7.87;;;3.90;;
5953;SDS011;3002;42.642;24.812;2023-06-14T06:02:41;6.83;;;3.27;;
5953;SDS011;3002;42.642;24.812;2023-06-14T06:05:10;27.77;;;5.00;;
5953;SDS011;3002;42.642;24.812;2023-06-14T06:07:36;8.37;;;3.60;;
5953;SDS011;3002;42.642;24.812;2023-06-14T06:10:02;8.43;;;3.93;;
5953;SDS011;3002;42.642;24.812;2023-06-14T06:12:30;7.87;;;4.10;;
5953;SDS011;3002;42.642;24.812;2023-06-14T06:14:55;7.77;;;3.93;;
5953;SDS011;3002;42.642;24.812;2023-06-14T06:17:21;7.00;;;3.67;;
5953;SDS011;3002;42.642;24.812;2023-06-14T06:19:46;6.93;;;2.87;;
5953;SDS011;3002;42.642;24.812;2023-06-14T06:22:12;10.23;;;3.60;;
5953;SDS011;3002;42.642;24.812;2023-06-14T06:24:37;10.17;;;3.83;;
5953;SDS011;3002;42.642;24.812;2023-06-14T06:27:03;7.90;;;3.90;;
5953;SDS011;3002;42.642;24.812;2023-06-14T06:29:29;7.20;;;3.47;;
5953;SDS011;3002;42.642;24.812;2023-06-14T06:31:54;7.40;;;4.03;;
5953;SDS011;3002;42.642;24.812;2023-06-14T06:34:21;7.10;;;3.27;;
5953;SDS011;3002;42.642;24.812;2023-06-14T06:36:47;8.80;;;3.80;;
5953;SDS011;3002;42.642;24.812;2023-06-14T06:39:13;7.87;;;3.90;;
5953;SDS011;3002;42.642;24.812;2023-06-14T06:41:40;10.80;;;3.70;;
5953;SDS011;3002;42.642;24.812;2023-06-14T06:44:06;7.30;;;3.43;;
5953;SDS011;3002;42.642;24.812;2023-06-14T06:46:32;8.77;;;3.27;;
5953;SDS011;3002;42.642;24.812;2023-06-14T06:48:58;6.90;;;3.93;;
5953;SDS011;3002;42.642;24.812;2023-06-14T06:51:25;6.00;;;3.03;;
5953;SDS011;3002;42.642;24.812;2023-06-14T06:53:53;9.93;;;3.00;;
5953;SDS011;3002;42.642;24.812;2023-06-14T06:56:20;8.60;;;3.23;;
5953;SDS011;3002;42.642;24.812;2023-06-14T06:58:48;8.33;;;3.70;;
5953;SDS011;3002;42.642;24.812;2023-06-14T07:01:14;11.00;;;3.93;;
5953;SDS011;3002;42.642;24.812;2023-06-14T07:03:40;7.63;;;3.37;;
5953;SDS011;3002;42.642;24.812;2023-06-14T07:06:06;10.67;;;3.90;;
5953;SDS011;3002;42.642;24.812;2023-06-14T07:08:32;6.63;;;3.00;;
5953;SDS011;3002;42.642;24.812;2023-06-14T07:10:57;7.97;;;3.30;;
5953;SDS011;3002;42.642;24.812;2023-06-14T07:13:23;7.73;;;2.73;;
5953;SDS011;3002;42.642;24.812;2023-06-14T07:15:48;9.77;;;3.10;;
5953;SDS011;3002;42.642;24.812;2023-06-14T07:18:14;7.50;;;2.87;;
5953;SDS011;3002;42.642;24.812;2023-06-14T07:20:39;6.33;;;3.30;;
5953;SDS011;3002;42.642;24.812;2023-06-14T07:23:05;8.17;;;3.80;;
5953;SDS011;3002;42.642;24.812;2023-06-14T07:25:31;7.90;;;4.63;;
5953;SDS011;3002;42.642;24.812;2023-06-14T07:27:56;16.63;;;3.90;;
5953;SDS011;3002;42.642;24.812;2023-06-14T07:30:22;7.33;;;3.90;;
5953;SDS011;3002;42.642;24.812;2023-06-14T07:32:51;6.60;;;3.07;;
5953;SDS011;3002;42.642;24.812;2023-06-14T07:35:17;10.90;;;4.07;;
5953;SDS011;3002;42.642;24.812;2023-06-14T07:37:43;6.40;;;3.50;;
5953;SDS011;3002;42.642;24.812;2023-06-14T07:40:08;7.30;;;3.67;;
5953;SDS011;3002;42.642;24.812;2023-06-14T07:42:35;7.87;;;3.90;;
5953;SDS011;3002;42.642;24.812;2023-06-14T07:45:01;5.43;;;2.63;;
5953;SDS011;3002;42.642;24.812;2023-06-14T07:47:28;8.50;;;4.17;;
5953;SDS011;3002;42.642;24.812;2023-06-14T07:49:53;6.57;;;3.20;;
5953;SDS011;3002;42.642;24.812;2023-06-14T07:52:19;8.23;;;3.13;;
5953;SDS011;3002;42.642;24.812;2023-06-14T07:54:45;8.50;;;3.90;;
5953;SDS011;3002;42.642;24.812;2023-06-14T07:57:10;9.60;;;3.33;;
5953;SDS011;3002;42.642;24.812;2023-06-14T07:59:36;8.50;;;3.60;;
5953;SDS011;3002;42.642;24.812;2023-06-14T08:02:01;7.57;;;3.40;;
5953;SDS011;3002;42.642;24.812;2023-06-14T08:04:27;8.07;;;3.37;;
5953;SDS011;3002;42.642;24.812;2023-06-14T08:06:53;9.23;;;3.20;;
5953;SDS011;3002;42.642;24.812;2023-06-14T08:09:18;7.90;;;3.37;;
5953;SDS011;3002;42.642;24.812;2023-06-14T08:11:44;7.23;;;2.97;;
5953;SDS011;3002;42.642;24.812;2023-06-14T08:14:09;8.93;;;3.50;;
5953;SDS011;3002;42.642;24.812;2023-06-14T08:16:35;5.70;;;2.20;;
5953;SDS011;3002;42.642;24.812;2023-06-14T08:19:01;7.07;;;3.20;;
5953;SDS011;3002;42.642;24.812;2023-06-14T08:21:32;6.10;;;2.93;;
5953;SDS011;3002;42.642;24.812;2023-06-14T08:23:58;7.33;;;2.53;;
5953;SDS011;3002;42.642;24.812;2023-06-14T08:26:24;10.83;;;2.93;;
5953;SDS011;3002;42.642;24.812;2023-06-14T08:28:54;5.20;;;2.30;;
5953;SDS011;3002;42.642;24.812;2023-06-14T08:31:20;5.40;;;2.20;;
5953;SDS011;3002;42.642;24.812;2023-06-14T08:33:46;8.67;;;1.90;;
5953;SDS011;3002;42.642;24.812;2023-06-14T08:36:11;6.10;;;2.00;;
5953;SDS011;3002;42.642;24.812;2023-06-14T08:38:37;5.90;;;2.07;;
5953;SDS011;3002;42.642;24.812;2023-06-14T08:41:04;5.30;;;2.07;;
5953;SDS011;3002;42.642;24.812;2023-06-14T08:43:31;5.50;;;2.30;;
5953;SDS011;3002;42.642;24.812;2023-06-14T08:46:00;4.93;;;2.13;;
5953;SDS011;3002;42.642;24.812;2023-06-14T08:48:28;5.73;;;1.97;;
5953;SDS011;3002;42.642;24.812;2023-06-14T08:50:59;5.80;;;2.33;;
5953;SDS011;3002;42.642;24.812;2023-06-14T08:53:31;5.07;;;2.40;;
5953;SDS011;3002;42.642;24.812;2023-06-14T08:55:59;8.13;;;3.13;;
5953;SDS011;3002;42.642;24.812;2023-06-14T08:58:27;6.50;;;2.23;;
5953;SDS011;3002;42.642;24.812;2023-06-14T09:00:59;16.80;;;2.97;;
5953;SDS011;3002;42.642;24.812;2023-06-14T09:03:30;5.13;;;2.20;;
5953;SDS011;3002;42.642;24.812;2023-06-14T09:05:58;11.93;;;3.00;;
5953;SDS011;3002;42.642;24.812;2023-06-14T09:08:25;5.57;;;2.30;;
5953;SDS011;3002;42.642;24.812;2023-06-14T09:10:51;8.43;;;2.60;;
5953;SDS011;3002;42.642;24.812;2023-06-14T09:13:17;7.20;;;2.50;;
5953;SDS011;3002;42.642;24.812;2023-06-14T09:15:43;7.60;;;2.20;;
5953;SDS011;3002;42.642;24.812;2023-06-14T09:18:08;5.80;;;2.23;;
5953;SDS011;3002;42.642;24.812;2023-06-14T09:20:34;5.37;;;2.30;;
5953;SDS011;3002;42.642;24.812;2023-06-14T09:23:00;5.27;;;2.07;;
5953;SDS011;3002;42.642;24.812;2023-06-14T09:25:26;12.00;;;2.67;;
5953;SDS011;3002;42.642;24.812;2023-06-14T09:27:52;6.60;;;2.30;;
5953;SDS011;3002;42.642;24.812;2023-06-14T09:30:19;5.70;;;2.53;;
5953;SDS011;3002;42.642;24.812;2023-06-14T09:32:46;5.70;;;2.43;;
5953;SDS011;3002;42.642;24.812;2023-06-14T09:35:11;5.73;;;2.20;;
5953;SDS011;3002;42.642;24.812;2023-06-14T09:40:34;4.57;;;1.97;;
5953;SDS011;3002;42.642;24.812;2023-06-14T09:43:01;5.27;;;2.10;;
5953;SDS011;3002;42.642;24.812;2023-06-14T09:45:29;7.00;;;2.50;;
5953;SDS011;3002;42.642;24.812;2023-06-14T09:47:57;5.50;;;2.23;;
5953;SDS011;3002;42.642;24.812;2023-06-14T09:50:23;4.50;;;1.80;;
5953;SDS011;3002;42.642;24.812;2023-06-14T09:52:48;19.80;;;2.83;;
5953;SDS011;3002;42.642;24.812;2023-06-14T09:55:17;8.10;;;2.80;;
5953;SDS011;3002;42.642;24.812;2023-06-14T09:57:45;9.23;;;1.93;;
5953;SDS011;3002;42.642;24.812;2023-06-14T10:00:12;5.90;;;2.33;;
5953;SDS011;3002;42.642;24.812;2023-06-14T10:02:40;5.53;;;2.10;;
5953;SDS011;3002;42.642;24.812;2023-06-14T10:05:12;7.67;;;2.43;;
5953;SDS011;3002;42.642;24.812;2023-06-14T10:07:42;9.73;;;2.30;;
5953;SDS011;3002;42.642;24.812;2023-06-14T10:10:20;6.10;;;2.20;;
5953;SDS011;3002;42.642;24.812;2023-06-14T10:12:47;5.23;;;1.90;;
5953;SDS011;3002;42.642;24.812;2023-06-14T10:15:20;5.73;;;2.30;;
5953;SDS011;3002;42.642;24.812;2023-06-14T10:18:14;5.33;;;2.13;;
5953;SDS011;3002;42.642;24.812;2023-06-14T10:23:43;4.60;;;1.90;;
5953;SDS011;3002;42.642;24.812;2023-06-14T10:26:17;6.67;;;2.67;;
5953;SDS011;3002;42.642;24.812;2023-06-14T10:28:55;6.10;;;2.73;;
5953;SDS011;3002;42.642;24.812;2023-06-14T10:34:12;5.60;;;2.00;;
5953;SDS011;3002;42.642;24.812;2023-06-14T10:36:50;5.70;;;2.17;;
5953;SDS011;3002;42.642;24.812;2023-06-14T10:39:27;6.90;;;2.90;;
5953;SDS011;3002;42.642;24.812;2023-06-14T10:41:55;8.03;;;3.27;;
5953;SDS011;3002;42.642;24.812;2023-06-14T10:46:47;6.03;;;2.63;;
5953;SDS011;3002;42.642;24.812;2023-06-14T10:49:16;6.50;;;2.30;;
5953;SDS011;3002;42.642;24.812;2023-06-14T10:51:45;5.80;;;2.23;;
5953;SDS011;3002;42.642;24.812;2023-06-14T10:54:16;6.17;;;2.87;;
5953;SDS011;3002;42.642;24.812;2023-06-14T10:56:49;10.13;;;3.13;;
5953;SDS011;3002;42.642;24.812;2023-06-14T10:59:16;9.40;;;2.50;;
5953;SDS011;3002;42.642;24.812;2023-06-14T11:05:09;6.20;;;2.70;;
5953;SDS011;3002;42.642;24.812;2023-06-14T11:10:37;5.57;;;2.37;;
5953;SDS011;3002;42.642;24.812;2023-06-14T11:13:03;7.83;;;2.17;;
5953;SDS011;3002;42.642;24.812;2023-06-14T11:15:29;5.73;;;2.30;;
5953;SDS011;3002;42.642;24.812;2023-06-14T11:17:56;6.47;;;2.70;;
5953;SDS011;3002;42.642;24.812;2023-06-14T11:20:24;6.63;;;2.67;;
5953;SDS011;3002;42.642;24.812;2023-06-14T11:22:51;5.57;;;2.27;;
5953;SDS011;3002;42.642;24.812;2023-06-14T11:25:17;5.70;;;2.67;;
5953;SDS011;3002;42.642;24.812;2023-06-14T11:27:42;5.07;;;2.33;;
5953;SDS011;3002;42.642;24.812;2023-06-14T11:30:09;5.10;;;2.10;;
5953;SDS011;3002;42.642;24.812;2023-06-14T11:32:35;5.97;;;2.37;;
5953;SDS011;3002;42.642;24.812;2023-06-14T11:35:02;6.93;;;2.23;;
5953;SDS011;3002;42.642;24.812;2023-06-14T11:37:30;7.50;;;2.93;;
5953;SDS011;3002;42.642;24.812;2023-06-14T11:39:58;6.57;;;3.00;;
5953;SDS011;3002;42.642;24.812;2023-06-14T11:42:24;12.90;;;2.47;;
5953;SDS011;3002;42.642;24.812;2023-06-14T11:44:53;7.50;;;3.00;;
5953;SDS011;3002;42.642;24.812;2023-06-14T11:47:19;5.73;;;2.63;;
5953;SDS011;3002;42.642;24.812;2023-06-14T11:49:45;9.07;;;3.20;;
5953;SDS011;3002;42.642;24.812;2023-06-14T11:52:11;8.00;;;3.07;;
5953;SDS011;3002;42.642;24.812;2023-06-14T11:54:37;5.33;;;2.20;;
5953;SDS011;3002;42.642;24.812;2023-06-14T11:57:18;8.20;;;3.63;;
5953;SDS011;3002;42.642;24.812;2023-06-14T11:59:51;5.80;;;2.60;;
5953;SDS011;3002;42.642;24.812;2023-06-14T12:02:17;6.67;;;2.37;;
5953;SDS011;3002;42.642;24.812;2023-06-14T12:04:46;6.50;;;2.20;;
5953;SDS011;3002;42.642;24.812;2023-06-14T12:07:15;6.03;;;2.73;;
5953;SDS011;3002;42.642;24.812;2023-06-14T12:10:04;6.10;;;2.97;;
5953;SDS011;3002;42.642;24.812;2023-06-14T12:12:34;6.20;;;3.10;;
5953;SDS011;3002;42.642;24.812;2023-06-14T12:15:02;8.80;;;3.13;;
5953;SDS011;3002;42.642;24.812;2023-06-14T12:17:31;7.00;;;3.00;;
5953;SDS011;3002;42.642;24.812;2023-06-14T12:19:57;6.77;;;3.00;;
5953;SDS011;3002;42.642;24.812;2023-06-14T12:22:23;7.67;;;3.27;;
5953;SDS011;3002;42.642;24.812;2023-06-14T12:24:48;5.90;;;2.80;;
5953;SDS011;3002;42.642;24.812;2023-06-14T12:27:14;6.77;;;3.10;;
5953;SDS011;3002;42.642;24.812;2023-06-14T12:29:44;6.77;;;2.90;;
5953;SDS011;3002;42.642;24.812;2023-06-14T12:32:10;6.23;;;3.10;;
5953;SDS011;3002;42.642;24.812;2023-06-14T12:34:36;9.13;;;3.90;;
5953;SDS011;3002;42.642;24.812;2023-06-14T12:37:02;6.10;;;3.13;;
5953;SDS011;3002;42.642;24.812;2023-06-14T12:39:29;6.70;;;3.20;;
5953;SDS011;3002;42.642;24.812;2023-06-14T12:41:56;6.50;;;3.20;;
5953;SDS011;3002;42.642;24.812;2023-06-14T12:44:22;6.43;;;2.80;;
5953;SDS011;3002;42.642;24.812;2023-06-14T12:46:47;6.40;;;2.83;;
5953;SDS011;3002;42.642;24.812;2023-06-14T12:49:13;5.27;;;2.57;;
5953;SDS011;3002;42.642;24.812;2023-06-14T12:51:39;6.90;;;3.37;;
5953;SDS011;3002;42.642;24.812;2023-06-14T12:54:05;8.63;;;2.77;;
5953;SDS011;3002;42.642;24.812;2023-06-14T12:56:31;5.60;;;2.67;;
5953;SDS011;3002;42.642;24.812;2023-06-14T12:58:57;6.63;;;3.00;;
5953;SDS011;3002;42.642;24.812;2023-06-14T13:01:24;21.23;;;3.03;;
5953;SDS011;3002;42.642;24.812;2023-06-14T13:03:49;7.40;;;3.30;;
5953;SDS011;3002;42.642;24.812;2023-06-14T13:06:20;5.30;;;2.67;;
5953;SDS011;3002;42.642;24.812;2023-06-14T13:08:46;5.63;;;2.70;;
5953;SDS011;3002;42.642;24.812;2023-06-14T13:11:11;5.67;;;2.53;;
5953;SDS011;3002;42.642;24.812;2023-06-14T13:13:37;5.80;;;2.37;;
5953;SDS011;3002;42.642;24.812;2023-06-14T13:16:02;4.43;;;1.70;;
5953;SDS011;3002;42.642;24.812;2023-06-14T13:18:28;4.90;;;2.20;;
5953;SDS011;3002;42.642;24.812;2023-06-14T13:20:53;5.23;;;2.00;;
5953;SDS011;3002;42.642;24.812;2023-06-14T13:23:19;6.27;;;2.27;;
5953;SDS011;3002;42.642;24.812;2023-06-14T13:25:44;5.60;;;2.00;;
5953;SDS011;3002;42.642;24.812;2023-06-14T13:28:10;5.80;;;2.17;;
5953;SDS011;3002;42.642;24.812;2023-06-14T13:30:35;6.80;;;1.90;;
5953;SDS011;3002;42.642;24.812;2023-06-14T13:33:01;4.83;;;2.37;;
5953;SDS011;3002;42.642;24.812;2023-06-14T13:35:27;5.50;;;2.30;;
5953;SDS011;3002;42.642;24.812;2023-06-14T13:37:52;7.93;;;1.50;;
5953;SDS011;3002;42.642;24.812;2023-06-14T13:40:18;5.93;;;2.80;;
5953;SDS011;3002;42.642;24.812;2023-06-14T13:42:44;6.27;;;2.30;;
5953;SDS011;3002;42.642;24.812;2023-06-14T13:45:11;5.30;;;2.27;;
5953;SDS011;3002;42.642;24.812;2023-06-14T13:47:37;5.00;;;2.20;;
5953;SDS011;3002;42.642;24.812;2023-06-14T13:50:04;5.73;;;2.07;;
5953;SDS011;3002;42.642;24.812;2023-06-14T13:52:30;5.20;;;1.90;;
5953;SDS011;3002;42.642;24.812;2023-06-14T13:54:55;8.93;;;1.97;;
5953;SDS011;3002;42.642;24.812;2023-06-14T13:57:20;6.10;;;2.30;;
5953;SDS011;3002;42.642;24.812;2023-06-14T13:59:46;4.93;;;2.13;;
5953;SDS011;3002;42.642;24.812;2023-06-14T14:02:12;5.20;;;1.80;;
5953;SDS011;3002;42.642;24.812;2023-06-14T14:04:38;5.00;;;2.17;;
5953;SDS011;3002;42.642;24.812;2023-06-14T14:07:04;8.90;;;2.43;;
5953;SDS011;3002;42.642;24.812;2023-06-14T14:09:31;4.13;;;1.60;;
5953;SDS011;3002;42.642;24.812;2023-06-14T14:11:58;6.23;;;1.70;;
5953;SDS011;3002;42.642;24.812;2023-06-14T14:14:23;5.63;;;1.80;;
5953;SDS011;3002;42.642;24.812;2023-06-14T14:16:49;5.70;;;1.80;;
5953;SDS011;3002;42.642;24.812;2023-06-14T14:19:16;4.70;;;1.73;;
5953;SDS011;3002;42.642;24.812;2023-06-14T14:21:44;5.23;;;2.17;;
5953;SDS011;3002;42.642;24.812;2023-06-14T14:24:10;5.23;;;2.07;;
5953;SDS011;3002;42.642;24.812;2023-06-14T14:26:35;5.80;;;2.40;;
5953;SDS011;3002;42.642;24.812;2023-06-14T14:29:01;4.20;;;1.43;;
5953;SDS011;3002;42.642;24.812;2023-06-14T14:31:27;4.40;;;1.57;;
5953;SDS011;3002;42.642;24.812;2023-06-14T14:33:53;5.53;;;1.90;;
5953;SDS011;3002;42.642;24.812;2023-06-14T14:36:19;6.67;;;1.67;;
5953;SDS011;3002;42.642;24.812;2023-06-14T14:38:44;4.00;;;1.20;;
5953;SDS011;3002;42.642;24.812;2023-06-14T14:41:10;4.33;;;1.77;;
5953;SDS011;3002;42.642;24.812;2023-06-14T14:43:35;4.93;;;1.73;;
5953;SDS011;3002;42.642;24.812;2023-06-14T14:46:01;5.40;;;1.53;;
5953;SDS011;3002;42.642;24.812;2023-06-14T14:48:26;3.50;;;1.20;;
5953;SDS011;3002;42.642;24.812;2023-06-14T14:50:52;6.30;;;1.50;;
5953;SDS011;3002;42.642;24.812;2023-06-14T14:53:17;4.60;;;1.73;;
5953;SDS011;3002;42.642;24.812;2023-06-14T14:55:43;4.27;;;1.70;;
5953;SDS011;3002;42.642;24.812;2023-06-14T14:58:12;4.97;;;1.60;;
5953;SDS011;3002;42.642;24.812;2023-06-14T15:00:38;4.83;;;1.67;;
5953;SDS011;3002;42.642;24.812;2023-06-14T15:03:05;4.07;;;1.67;;
5953;SDS011;3002;42.642;24.812;2023-06-14T15:05:33;3.87;;;1.40;;
5953;SDS011;3002;42.642;24.812;2023-06-14T15:07:59;4.83;;;1.73;;
5953;SDS011;3002;42.642;24.812;2023-06-14T15:10:24;7.70;;;1.60;;
5953;SDS011;3002;42.642;24.812;2023-06-14T15:12:50;4.70;;;1.60;;
5953;SDS011;3002;42.642;24.812;2023-06-14T15:15:17;8.77;;;1.20;;
5953;SDS011;3002;42.642;24.812;2023-06-14T15:17:44;5.13;;;1.70;;
5953;SDS011;3002;42.642;24.812;2023-06-14T15:20:10;6.23;;;1.60;;